sensor_id;sensor_type;location;lat;lon;timestamp;pressure;altitude;pressure_sealevel;temperature;humidity
30598;BME280;17365;48.878;8.334;2022-11-20T00:00:45;99643.25;;;7.21;100.00
30598;BME280;17365;48.878;8.334;2022-11-20T00:03:10;99633.78;;;7.23;100.00
30598;BME280;17365;48.878;8.334;2022-11-20T00:05:35;99645.09;;;7.38;100.00
30598;BME280;17365;48.878;8.334;2022-11-20T00:08:01;99644.19;;;7.33;100.00
30598;BME280;17365;48.878;8.334;2022-11-20T00:10:26;99642.38;;;7.21;100.00
30598;BME280;17365;48.878;8.334;2022-11-20T00:12:52;99653.56;;;7.23;100.00
30598;BME280;17365;48.878;8.334;2022-11-20T00:15:17;99649.41;;;7.40;100.00
30598;BME280;17365;48.878;8.334;2022-11-20T00:17:42;99655.38;;;7.33;100.00
30598;BME280;17365;48.878;8.334;2022-11-20T00:20:08;99658.91;;;7.46;100.00
30598;BME280;17365;48.878;8.334;2022-11-20T00:22:34;99650.41;;;7.64;100.00
30598;BME280;17365;48.878;8.334;2022-11-20T00:24:59;99658.81;;;7.34;100.00
30598;BME280;17365;48.878;8.334;2022-11-20T00:27:24;99659.81;;;7.52;100.00
30598;BME280;17365;48.878;8.334;2022-11-20T00:29:50;99655.53;;;7.54;100.00
30598;BME280;17365;48.878;8.334;2022-11-20T00:32:15;99658.09;;;7.51;100.00
30598;BME280;17365;48.878;8.334;2022-11-20T00:34:40;99661.53;;;7.50;100.00
30598;BME280;17365;48.878;8.334;2022-11-20T00:37:05;99659.75;;;7.46;100.00
30598;BME280;17365;48.878;8.334;2022-11-20T00:39:31;99655.53;;;7.57;100.00
30598;BME280;17365;48.878;8.334;2022-11-20T00:41:56;99658.03;;;7.42;100.00
30598;BME280;17365;48.878;8.334;2022-11-20T00:44:21;99659.03;;;7.64;100.00
30598;BME280;17365;48.878;8.334;2022-11-20T00:46:47;99665.81;;;7.48;100.00
30598;BME280;17365;48.878;8.334;2022-11-20T00:49:12;99652.88;;;7.44;100.00
30598;BME280;17365;48.878;8.334;2022-11-20T00:51:37;99653.81;;;7.55;100.00
30598;BME280;17365;48.878;8.334;2022-11-20T00:54:03;99652.94;;;7.51;100.00
30598;BME280;17365;48.878;8.334;2022-11-20T00:56:28;99651.22;;;7.55;100.00
30598;BME280;17365;48.878;8.334;2022-11-20T00:58:54;99660.69;;;7.56;100.00
30598;BME280;17365;48.878;8.334;2022-11-20T01:01:23;99659.81;;;7.49;100.00
30598;BME280;17365;48.878;8.334;2022-11-20T01:03:50;99657.25;;;7.54;100.00
30598;BME280;17365;48.878;8.334;2022-11-20T01:06:20;99652.00;;;7.42;100.00
30598;BME280;17365;48.878;8.334;2022-11-20T01:08:46;99654.59;;;7.43;100.00
30598;BME280;17365;48.878;8.334;2022-11-20T01:11:19;99652.94;;;7.54;100.00
30598;BME280;17365;48.878;8.334;2022-11-20T01:13:46;99656.38;;;7.52;100.00
30598;BME280;17365;48.878;8.334;2022-11-20T01:18:41;99660.69;;;7.54;100.00
30598;BME280;17365;48.878;8.334;2022-11-20T01:21:09;99653.00;;;7.59;100.00
30598;BME280;17365;48.878;8.334;2022-11-20T01:23:38;99658.91;;;7.47;100.00
30598;BME280;17365;48.878;8.334;2022-11-20T01:26:06;99656.38;;;7.55;100.00
30598;BME280;17365;48.878;8.334;2022-11-20T01:28:32;99662.38;;;7.49;100.00
30598;BME280;17365;48.878;8.334;2022-11-20T01:30:58;99657.31;;;7.68;100.00
30598;BME280;17365;48.878;8.334;2022-11-20T01:33:23;99663.34;;;7.67;100.00
30598;BME280;17365;48.878;8.334;2022-11-20T01:35:49;99656.44;;;7.67;100.00
30598;BME280;17365;48.878;8.334;2022-11-20T01:38:17;99659.91;;;7.68;100.00
30598;BME280;17365;48.878;8.334;2022-11-20T01:40:43;99665.91;;;7.64;100.00
30598;BME280;17365;48.878;8.334;2022-11-20T01:43:19;99662.41;;;7.57;100.00
30598;BME280;17365;48.878;8.334;2022-11-20T01:45:56;99657.31;;;7.66;100.00
30598;BME280;17365;48.878;8.334;2022-11-20T01:48:25;99654.66;;;7.58;100.00
30598;BME280;17365;48.878;8.334;2022-11-20T01:50:52;99653.00;;;7.61;100.00
30598;BME280;17365;48.878;8.334;2022-11-20T01:53:21;99652.94;;;7.51;100.00
30598;BME280;17365;48.878;8.334;2022-11-20T01:55:53;99652.94;;;7.51;100.00
30598;BME280;17365;48.878;8.334;2022-11-20T01:58:22;99656.31;;;7.46;100.00
30598;BME280;17365;48.878;8.334;2022-11-20T02:00:50;99658.91;;;7.47;100.00
30598;BME280;17365;48.878;8.334;2022-11-20T02:03:17;99651.06;;;7.32;100.00
30598;BME280;17365;48.878;8.334;2022-11-20T02:05:48;99653.75;;;7.47;100.00
30598;BME280;17365;48.878;8.334;2022-11-20T02:08:15;99651.94;;;7.34;100.00
30598;BME280;17365;48.878;8.334;2022-11-20T02:10:42;99647.72;;;7.45;100.00
30598;BME280;17365;48.878;8.334;2022-11-20T02:13:08;99652.84;;;7.38;100.00
30598;BME280;17365;48.878;8.334;2022-11-20T02:15:52;99648.47;;;7.32;100.00
30598;BME280;17365;48.878;8.334;2022-11-20T02:18:19;99646.75;;;7.29;100.00
30598;BME280;17365;48.878;8.334;2022-11-20T02:20:47;99647.63;;;7.33;100.00
30598;BME280;17365;48.878;8.334;2022-11-20T02:25:49;99650.28;;;7.47;100.00
30598;BME280;17365;48.878;8.334;2022-11-20T02:28:14;99646.78;;;7.34;100.00
30598;BME280;17365;48.878;8.334;2022-11-20T02:30:40;99651.13;;;7.38;100.00
30598;BME280;17365;48.878;8.334;2022-11-20T02:33:05;99651.22;;;7.58;100.00
30598;BME280;17365;48.878;8.334;2022-11-20T02:37:58;99650.34;;;7.51;100.00
30598;BME280;17365;48.878;8.334;2022-11-20T02:40:24;99649.53;;;7.60;100.00
30598;BME280;17365;48.878;8.334;2022-11-20T02:42:54;99652.16;;;7.66;100.00
30598;BME280;17365;48.878;8.334;2022-11-20T02:45:19;99657.22;;;7.51;99.75
30598;BME280;17365;48.878;8.334;2022-11-20T02:47:45;99653.88;;;7.64;99.83
30598;BME280;17365;48.878;8.334;2022-11-20T02:50:11;99656.38;;;7.56;99.46
30598;BME280;17365;48.878;8.334;2022-11-20T02:52:36;99649.53;;;7.60;99.88
30598;BME280;17365;48.878;8.334;2022-11-20T02:55:02;99655.59;;;7.68;100.00
30598;BME280;17365;48.878;8.334;2022-11-20T02:57:27;99648.75;;;7.72;99.42
30598;BME280;17365;48.878;8.334;2022-11-20T02:59:53;99648.75;;;7.72;99.59
30598;BME280;17365;48.878;8.334;2022-11-20T03:02:18;99658.09;;;7.51;99.51
30598;BME280;17365;48.878;8.334;2022-11-20T03:04:43;99655.53;;;7.56;99.39
30598;BME280;17365;48.878;8.334;2022-11-20T03:07:09;99657.38;;;7.77;99.51
30598;BME280;17365;48.878;8.334;2022-11-20T03:09:34;99659.09;;;7.72;99.57
30598;BME280;17365;48.878;8.334;2022-11-20T03:12:00;99659.00;;;7.59;99.80
30598;BME280;17365;48.878;8.334;2022-11-20T03:14:25;99663.28;;;7.56;99.25
30598;BME280;17365;48.878;8.334;2022-11-20T03:16:50;99662.41;;;7.55;100.00
30598;BME280;17365;48.878;8.334;2022-11-20T03:19:16;99664.19;;;7.59;100.00
30598;BME280;17365;48.878;8.334;2022-11-20T03:21:41;99665.84;;;7.57;99.22
30598;BME280;17365;48.878;8.334;2022-11-20T03:24:07;99665.91;;;7.64;99.57
30598;BME280;17365;48.878;8.334;2022-11-20T03:26:32;99656.53;;;7.78;98.82
30598;BME280;17365;48.878;8.334;2022-11-20T03:29:00;99660.75;;;7.67;99.30
30598;BME280;17365;48.878;8.334;2022-11-20T03:31:31;99659.88;;;7.60;99.42
30598;BME280;17365;48.878;8.334;2022-11-20T03:33:57;99659.66;;;7.33;100.00
30598;BME280;17365;48.878;8.334;2022-11-20T03:36:23;99660.53;;;7.35;100.00
30598;BME280;17365;48.878;8.334;2022-11-20T03:38:49;99653.72;;;7.44;100.00
30598;BME280;17365;48.878;8.334;2022-11-20T03:41:18;99655.44;;;7.45;100.00
30598;BME280;17365;48.878;8.334;2022-11-20T03:43:51;99647.72;;;7.45;100.00
30598;BME280;17365;48.878;8.334;2022-11-20T03:46:17;99652.06;;;7.54;100.00
30598;BME280;17365;48.878;8.334;2022-11-20T03:48:43;99652.09;;;7.58;99.78
30598;BME280;17365;48.878;8.334;2022-11-20T03:53:37;99651.22;;;7.58;99.38
30598;BME280;17365;48.878;8.334;2022-11-20T03:56:02;99651.28;;;7.59;100.00
30598;BME280;17365;48.878;8.334;2022-11-20T03:58:28;99646.81;;;7.37;100.00
30598;BME280;17365;48.878;8.334;2022-11-20T04:00:53;99652.06;;;7.55;100.00
30598;BME280;17365;48.878;8.334;2022-11-20T04:03:18;99654.59;;;7.43;100.00
30598;BME280;17365;48.878;8.334;2022-11-20T04:05:44;99655.44;;;7.44;100.00
30598;BME280;17365;48.878;8.334;2022-11-20T04:08:09;99649.41;;;7.42;100.00
30598;BME280;17365;48.878;8.334;2022-11-20T04:10:34;99650.19;;;7.27;100.00
30598;BME280;17365;48.878;8.334;2022-11-20T04:13:00;99646.97;;;7.62;100.00
30598;BME280;17365;48.878;8.334;2022-11-20T04:15:25;99645.13;;;7.42;100.00
30598;BME280;17365;48.878;8.334;2022-11-20T04:17:50;99645.13;;;7.42;100.00
30598;BME280;17365;48.878;8.334;2022-11-20T04:20:15;99646.91;;;7.52;100.00
30598;BME280;17365;48.878;8.334;2022-11-20T04:22:41;99643.34;;;7.35;100.00
30598;BME280;17365;48.878;8.334;2022-11-20T04:25:06;99641.69;;;7.45;100.00
30598;BME280;17365;48.878;8.334;2022-11-20T04:27:32;99636.41;;;7.28;100.00
30598;BME280;17365;48.878;8.334;2022-11-20T04:29:57;99627.00;;;7.35;100.00
30598;BME280;17365;48.878;8.334;2022-11-20T04:32:22;99636.56;;;7.49;100.00
30598;BME280;17365;48.878;8.334;2022-11-20T04:34:48;99634.84;;;7.50;99.84
30598;BME280;17365;48.878;8.334;2022-11-20T04:37:13;99629.66;;;7.45;100.00
30598;BME280;17365;48.878;8.334;2022-11-20T04:39:38;99636.50;;;7.40;99.86
30598;BME280;17365;48.878;8.334;2022-11-20T04:42:03;99634.84;;;7.48;100.00
30598;BME280;17365;48.878;8.334;2022-11-20T04:44:48;99636.53;;;7.45;99.67
30598;BME280;17365;48.878;8.334;2022-11-20T04:47:13;99630.63;;;7.61;99.27
30598;BME280;17365;48.878;8.334;2022-11-20T04:49:39;99639.09;;;7.46;99.16
30598;BME280;17365;48.878;8.334;2022-11-20T04:52:05;99630.63;;;7.66;98.49
30598;BME280;17365;48.878;8.334;2022-11-20T04:54:30;99631.50;;;7.62;98.29
30598;BME280;17365;48.878;8.334;2022-11-20T04:56:56;99630.63;;;7.66;97.36
30598;BME280;17365;48.878;8.334;2022-11-20T04:59:21;99624.59;;;7.62;97.27
30598;BME280;17365;48.878;8.334;2022-11-20T05:01:47;99623.69;;;7.58;97.91
30598;BME280;17365;48.878;8.334;2022-11-20T05:04:12;99611.63;;;7.51;97.88
30598;BME280;17365;48.878;8.334;2022-11-20T05:06:37;99622.75;;;7.43;97.50
30598;BME280;17365;48.878;8.334;2022-11-20T05:09:03;99622.88;;;7.66;96.96
30598;BME280;17365;48.878;8.334;2022-11-20T05:11:28;99620.22;;;7.49;97.50
30598;BME280;17365;48.878;8.334;2022-11-20T05:13:54;99621.97;;;7.51;98.05
30598;BME280;17365;48.878;8.334;2022-11-20T05:16:21;99609.91;;;7.53;98.19
30598;BME280;17365;48.878;8.334;2022-11-20T05:18:47;99616.81;;;7.56;97.93
30598;BME280;17365;48.878;8.334;2022-11-20T05:21:13;99609.94;;;7.58;97.58
30598;BME280;17365;48.878;8.334;2022-11-20T05:23:40;99612.50;;;7.50;97.27
30598;BME280;17365;48.878;8.334;2022-11-20T05:26:07;99603.88;;;7.48;97.85
30598;BME280;17365;48.878;8.334;2022-11-20T05:28:33;99609.91;;;7.50;97.63
30598;BME280;17365;48.878;8.334;2022-11-20T05:31:07;99615.06;;;7.50;97.27
30598;BME280;17365;48.878;8.334;2022-11-20T05:33:34;99609.06;;;7.53;96.89
30598;BME280;17365;48.878;8.334;2022-11-20T05:35:59;99613.41;;;7.62;97.10
30598;BME280;17365;48.878;8.334;2022-11-20T05:38:25;99609.06;;;7.56;95.71
30598;BME280;17365;48.878;8.334;2022-11-20T05:40:50;99610.00;;;7.67;96.10
30598;BME280;17365;48.878;8.334;2022-11-20T05:43:15;99605.66;;;7.60;95.87
30598;BME280;17365;48.878;8.334;2022-11-20T05:45:40;99602.19;;;7.56;95.70
30598;BME280;17365;48.878;8.334;2022-11-20T05:48:06;99597.06;;;7.59;95.48
30598;BME280;17365;48.878;8.334;2022-11-20T05:50:31;99596.22;;;7.64;94.35
30598;BME280;17365;48.878;8.334;2022-11-20T05:52:59;99599.66;;;7.59;94.36
30598;BME280;17365;48.878;8.334;2022-11-20T05:55:26;99596.22;;;7.67;94.97
30598;BME280;17365;48.878;8.334;2022-11-20T05:57:53;99604.81;;;7.59;94.86
30598;BME280;17365;48.878;8.334;2022-11-20T06:00:19;99599.59;;;7.58;94.63
30598;BME280;17365;48.878;8.334;2022-11-20T06:02:44;99602.22;;;7.61;93.88
30598;BME280;17365;48.878;8.334;2022-11-20T06:05:09;99607.41;;;7.66;94.17
30598;BME280;17365;48.878;8.334;2022-11-20T06:07:34;99602.22;;;7.59;93.95
30598;BME280;17365;48.878;8.334;2022-11-20T06:10:00;99599.53;;;7.46;94.50
30598;BME280;17365;48.878;8.334;2022-11-20T06:12:25;99601.31;;;7.53;93.88
30598;BME280;17365;48.878;8.334;2022-11-20T06:14:50;99603.03;;;7.52;93.06
30598;BME280;17365;48.878;8.334;2022-11-20T06:17:16;99598.72;;;7.48;93.88
30598;BME280;17365;48.878;8.334;2022-11-20T06:19:41;99606.47;;;7.48;93.89
30598;BME280;17365;48.878;8.334;2022-11-20T06:22:06;99603.97;;;7.65;94.05
30598;BME280;17365;48.878;8.334;2022-11-20T06:24:31;99615.09;;;7.56;94.04
30598;BME280;17365;48.878;8.334;2022-11-20T06:26:57;99610.84;;;7.62;95.11
30598;BME280;17365;48.878;8.334;2022-11-20T06:29:22;99611.66;;;7.54;96.12
30598;BME280;17365;48.878;8.334;2022-11-20T06:31:47;99614.22;;;7.54;97.34
30598;BME280;17365;48.878;8.334;2022-11-20T06:34:13;99614.19;;;7.48;98.70
30598;BME280;17365;48.878;8.334;2022-11-20T06:36:38;99621.81;;;7.30;100.00
30598;BME280;17365;48.878;8.334;2022-11-20T06:39:03;99616.66;;;7.32;100.00
30598;BME280;17365;48.878;8.334;2022-11-20T06:41:29;99619.25;;;7.32;100.00
30598;BME280;17365;48.878;8.334;2022-11-20T06:43:54;99623.59;;;7.37;100.00
30598;BME280;17365;48.878;8.334;2022-11-20T06:46:20;99615.00;;;7.41;100.00
30598;BME280;17365;48.878;8.334;2022-11-20T06:48:47;99620.09;;;7.35;100.00
30598;BME280;17365;48.878;8.334;2022-11-20T06:51:13;99619.22;;;7.27;100.00
30598;BME280;17365;48.878;8.334;2022-11-20T06:53:38;99621.81;;;7.27;100.00
30598;BME280;17365;48.878;8.334;2022-11-20T06:56:04;99620.97;;;7.36;100.00
30598;BME280;17365;48.878;8.334;2022-11-20T06:58:31;99626.03;;;7.19;100.00
30598;BME280;17365;48.878;8.334;2022-11-20T07:01:02;99630.41;;;7.27;100.00
30598;BME280;17365;48.878;8.334;2022-11-20T07:03:28;99641.50;;;7.19;100.00
30598;BME280;17365;48.878;8.334;2022-11-20T07:05:55;99645.00;;;7.27;100.00
30598;BME280;17365;48.878;8.334;2022-11-20T07:08:20;99634.72;;;7.32;100.00
30598;BME280;17365;48.878;8.334;2022-11-20T07:10:46;99637.38;;;7.45;100.00
30598;BME280;17365;48.878;8.334;2022-11-20T07:13:11;99642.47;;;7.32;100.00
30598;BME280;17365;48.878;8.334;2022-11-20T07:15:36;99641.59;;;7.33;100.00
30598;BME280;17365;48.878;8.334;2022-11-20T07:18:02;99639.09;;;7.43;100.00
30598;BME280;17365;48.878;8.334;2022-11-20T07:20:27;99645.09;;;7.39;100.00
30598;BME280;17365;48.878;8.334;2022-11-20T07:22:53;99648.50;;;7.35;100.00
30598;BME280;17365;48.878;8.334;2022-11-20T07:25:19;99648.56;;;7.41;100.00
30598;BME280;17365;48.878;8.334;2022-11-20T07:27:45;99644.22;;;7.37;100.00
30598;BME280;17365;48.878;8.334;2022-11-20T07:30:10;99644.31;;;7.48;100.00
30598;BME280;17365;48.878;8.334;2022-11-20T07:32:36;99658.06;;;7.48;100.00
30598;BME280;17365;48.878;8.334;2022-11-20T07:35:01;99648.53;;;7.37;100.00
30598;BME280;17365;48.878;8.334;2022-11-20T07:37:26;99655.41;;;7.36;100.00
30598;BME280;17365;48.878;8.334;2022-11-20T07:39:51;99660.69;;;7.57;100.00
30598;BME280;17365;48.878;8.334;2022-11-20T07:42:17;99661.56;;;7.56;100.00
30598;BME280;17365;48.878;8.334;2022-11-20T07:44:42;99659.72;;;7.39;100.00
30598;BME280;17365;48.878;8.334;2022-11-20T07:47:07;99658.88;;;7.41;100.00
30598;BME280;17365;48.878;8.334;2022-11-20T07:49:32;99653.66;;;7.35;100.00
30598;BME280;17365;48.878;8.334;2022-11-20T07:51:58;99663.25;;;7.53;100.00
30598;BME280;17365;48.878;8.334;2022-11-20T07:54:23;99657.16;;;7.42;100.00
30598;BME280;17365;48.878;8.334;2022-11-20T07:56:49;99664.03;;;7.43;100.00
30598;BME280;17365;48.878;8.334;2022-11-20T07:59:15;99668.25;;;7.32;100.00
30598;BME280;17365;48.878;8.334;2022-11-20T08:01:41;99662.34;;;7.46;100.00
30598;BME280;17365;48.878;8.334;2022-11-20T08:04:07;99676.09;;;7.42;100.00
30598;BME280;17365;48.878;8.334;2022-11-20T08:06:33;99669.34;;;7.59;100.00
30598;BME280;17365;48.878;8.334;2022-11-20T08:08:58;99675.19;;;7.37;100.00
30598;BME280;17365;48.878;8.334;2022-11-20T08:11:23;99676.16;;;7.51;100.00
30598;BME280;17365;48.878;8.334;2022-11-20T08:14:07;99672.72;;;7.51;100.00
30598;BME280;17365;48.878;8.334;2022-11-20T08:16:43;99681.38;;;7.61;100.00
30598;BME280;17365;48.878;8.334;2022-11-20T08:19:08;99681.25;;;7.45;100.00
30598;BME280;17365;48.878;8.334;2022-11-20T08:21:34;99684.78;;;7.55;100.00
30598;BME280;17365;48.878;8.334;2022-11-20T08:23:59;99687.41;;;7.59;100.00
30598;BME280;17365;48.878;8.334;2022-11-20T08:26:25;99684.78;;;7.58;100.00
30598;BME280;17365;48.878;8.334;2022-11-20T08:28:54;99684.81;;;7.59;100.00
30598;BME280;17365;48.878;8.334;2022-11-20T08:31:20;99695.88;;;7.42;100.00
30598;BME280;17365;48.878;8.334;2022-11-20T08:33:46;99696.88;;;7.64;100.00
30598;BME280;17365;48.878;8.334;2022-11-20T08:36:11;99703.69;;;7.51;100.00
30598;BME280;17365;48.878;8.334;2022-11-20T08:38:36;99702.84;;;7.53;100.00
30598;BME280;17365;48.878;8.334;2022-11-20T08:41:04;99692.56;;;7.59;100.00
30598;BME280;17365;48.878;8.334;2022-11-20T08:43:48;99708.78;;;7.43;100.00
30598;BME280;17365;48.878;8.334;2022-11-20T08:46:13;99702.81;;;7.50;100.00
30598;BME280;17365;48.878;8.334;2022-11-20T08:48:39;99701.91;;;7.47;100.00
30598;BME280;17365;48.878;8.334;2022-11-20T08:51:04;99712.28;;;7.48;100.00
30598;BME280;17365;48.878;8.334;2022-11-20T08:53:30;99711.50;;;7.65;100.00
30598;BME280;17365;48.878;8.334;2022-11-20T08:55:56;99719.25;;;7.65;100.00
30598;BME280;17365;48.878;8.334;2022-11-20T08:58:21;99717.63;;;7.79;100.00
30598;BME280;17365;48.878;8.334;2022-11-20T09:00:47;99720.13;;;7.67;100.00
30598;BME280;17365;48.878;8.334;2022-11-20T09:03:12;99717.56;;;7.70;100.00
30598;BME280;17365;48.878;8.334;2022-11-20T09:05:38;99717.56;;;7.68;100.00
30598;BME280;17365;48.878;8.334;2022-11-20T09:08:04;99728.81;;;7.76;100.00
30598;BME280;17365;48.878;8.334;2022-11-20T09:10:29;99731.31;;;7.66;100.00
30598;BME280;17365;48.878;8.334;2022-11-20T09:12:55;99726.31;;;7.88;100.00
30598;BME280;17365;48.878;8.334;2022-11-20T09:15:21;99731.38;;;7.75;100.00
30598;BME280;17365;48.878;8.334;2022-11-20T09:17:57;99733.91;;;7.67;100.00
30598;BME280;17365;48.878;8.334;2022-11-20T09:20:23;99743.38;;;7.67;100.00
30598;BME280;17365;48.878;8.334;2022-11-20T09:22:48;99739.91;;;7.62;100.00
30598;BME280;17365;48.878;8.334;2022-11-20T09:25:14;99733.75;;;7.47;100.00
30598;BME280;17365;48.878;8.334;2022-11-20T09:27:39;99739.03;;;7.59;100.00
30598;BME280;17365;48.878;8.334;2022-11-20T09:30:09;99733.81;;;7.55;100.00
30598;BME280;17365;48.878;8.334;2022-11-20T09:32:34;99744.22;;;7.63;100.00
30598;BME280;17365;48.878;8.334;2022-11-20T09:34:59;99749.38;;;7.67;100.00
30598;BME280;17365;48.878;8.334;2022-11-20T09:37:24;99751.69;;;7.35;100.00
30598;BME280;17365;48.878;8.334;2022-11-20T09:39:50;99745.00;;;7.55;100.00
30598;BME280;17365;48.878;8.334;2022-11-20T09:42:38;99750.94;;;7.47;100.00
30598;BME280;17365;48.878;8.334;2022-11-20T09:45:16;99751.88;;;7.53;100.00
30598;BME280;17365;48.878;8.334;2022-11-20T09:50:32;99752.03;;;7.76;100.00
30598;BME280;17365;48.878;8.334;2022-11-20T09:55:56;99748.59;;;7.76;100.00
30598;BME280;17365;48.878;8.334;2022-11-20T09:58:29;99757.22;;;7.81;100.00
30598;BME280;17365;48.878;8.334;2022-11-20T10:01:03;99753.81;;;7.82;100.00
30598;BME280;17365;48.878;8.334;2022-11-20T10:03:39;99747.72;;;7.72;100.00
30598;BME280;17365;48.878;8.334;2022-11-20T10:06:07;99754.66;;;7.79;100.00
30598;BME280;17365;48.878;8.334;2022-11-20T10:08:45;99754.66;;;7.79;100.00
30598;BME280;17365;48.878;8.334;2022-11-20T10:11:35;99759.03;;;7.91;100.00
30598;BME280;17365;48.878;8.334;2022-11-20T10:14:30;99758.91;;;7.73;100.00
30598;BME280;17365;48.878;8.334;2022-11-20T10:20:36;99756.38;;;7.80;100.00
30598;BME280;17365;48.878;8.334;2022-11-20T10:31:28;99746.31;;;8.20;100.00
30598;BME280;17365;48.878;8.334;2022-11-20T10:33:56;99748.84;;;8.14;100.00
30598;BME280;17365;48.878;8.334;2022-11-20T10:36:26;99740.38;;;8.38;100.00
30598;BME280;17365;48.878;8.334;2022-11-20T10:41:52;99731.84;;;8.50;100.00
30598;BME280;17365;48.878;8.334;2022-11-20T10:44:28;99724.94;;;8.50;100.00
30598;BME280;17365;48.878;8.334;2022-11-20T10:47:18;99719.75;;;8.45;100.00
30598;BME280;17365;48.878;8.334;2022-11-20T10:49:47;99718.88;;;8.48;100.00
30598;BME280;17365;48.878;8.334;2022-11-20T10:55:22;99714.66;;;8.61;100.00
30598;BME280;17365;48.878;8.334;2022-11-20T10:57:54;99707.75;;;8.67;100.00
30598;BME280;17365;48.878;8.334;2022-11-20T11:00:24;99698.34;;;8.85;99.97
30598;BME280;17365;48.878;8.334;2022-11-20T11:02:51;99700.00;;;8.63;100.00
30598;BME280;17365;48.878;8.334;2022-11-20T11:05:40;99701.75;;;8.78;100.00
30598;BME280;17365;48.878;8.334;2022-11-20T11:08:14;99692.28;;;8.93;99.51
30598;BME280;17365;48.878;8.334;2022-11-20T11:10:49;99690.56;;;8.92;98.23
30598;BME280;17365;48.878;8.334;2022-11-20T11:13:27;99689.69;;;8.93;97.83
30598;BME280;17365;48.878;8.334;2022-11-20T11:15:53;99688.84;;;8.90;98.31
30598;BME280;17365;48.878;8.334;2022-11-20T11:18:33;99672.47;;;8.91;97.83
30598;BME280;17365;48.878;8.334;2022-11-20T11:21:02;99676.81;;;9.09;97.47
30598;BME280;17365;48.878;8.334;2022-11-20T11:23:37;99661.25;;;9.16;96.28
30598;BME280;17365;48.878;8.334;2022-11-20T11:26:18;99656.13;;;9.18;96.60
30598;BME280;17365;48.878;8.334;2022-11-20T11:29:15;99656.97;;;8.95;96.21
30598;BME280;17365;48.878;8.334;2022-11-20T11:31:42;99651.78;;;9.30;96.08
30598;BME280;17365;48.878;8.334;2022-11-20T11:34:12;99649.19;;;9.27;94.57
30598;BME280;17365;48.878;8.334;2022-11-20T11:36:38;99649.19;;;9.46;94.67
30598;BME280;17365;48.878;8.334;2022-11-20T11:39:06;99648.34;;;9.30;95.41
30598;BME280;17365;48.878;8.334;2022-11-20T11:41:33;99638.84;;;9.20;94.42
30598;BME280;17365;48.878;8.334;2022-11-20T11:44:15;99636.22;;;9.38;93.24
30598;BME280;17365;48.878;8.334;2022-11-20T11:47:00;99631.06;;;9.55;93.51
30598;BME280;17365;48.878;8.334;2022-11-20T11:49:25;99630.16;;;9.59;90.52
30598;BME280;17365;48.878;8.334;2022-11-20T11:54:32;99625.00;;;9.56;88.67
30598;BME280;17365;48.878;8.334;2022-11-20T11:57:01;99620.66;;;9.59;87.86
30598;BME280;17365;48.878;8.334;2022-11-20T11:59:54;99625.88;;;9.44;88.73
30598;BME280;17365;48.878;8.334;2022-11-20T12:02:34;99621.59;;;9.26;89.17
30598;BME280;17365;48.878;8.334;2022-11-20T12:13:42;99630.19;;;9.50;90.25
30598;BME280;17365;48.878;8.334;2022-11-20T12:16:13;99631.91;;;9.48;89.72
30598;BME280;17365;48.878;8.334;2022-11-20T12:18:39;99618.09;;;9.59;89.63
30598;BME280;17365;48.878;8.334;2022-11-20T12:27:03;99616.41;;;9.45;89.73
30598;BME280;17365;48.878;8.334;2022-11-20T12:29:52;99616.38;;;9.48;89.47
30598;BME280;17365;48.878;8.334;2022-11-20T12:40:27;99618.97;;;9.52;88.29
30598;BME280;17365;48.878;8.334;2022-11-20T12:43:01;99621.56;;;9.48;87.50
30598;BME280;17365;48.878;8.334;2022-11-20T12:54:21;99612.94;;;9.37;79.89
30598;BME280;17365;48.878;8.334;2022-11-20T12:57:18;99612.97;;;9.21;77.93
30598;BME280;17365;48.878;8.334;2022-11-20T13:07:42;99605.19;;;8.92;77.06
30598;BME280;17365;48.878;8.334;2022-11-20T13:10:16;99604.34;;;9.22;77.98
30598;BME280;17365;48.878;8.334;2022-11-20T13:12:46;99594.84;;;9.32;77.43
30598;BME280;17365;48.878;8.334;2022-11-20T13:15:54;99588.78;;;9.42;76.03
30598;BME280;17365;48.878;8.334;2022-11-20T13:18:21;99584.47;;;9.44;75.56
30598;BME280;17365;48.878;8.334;2022-11-20T13:20:47;99576.69;;;9.40;74.44
30598;BME280;17365;48.878;8.334;2022-11-20T13:23:25;99584.50;;;9.32;73.82
30598;BME280;17365;48.878;8.334;2022-11-20T13:25:50;99586.22;;;9.30;72.62
30598;BME280;17365;48.878;8.334;2022-11-20T13:30:55;99578.41;;;9.56;69.13
30598;BME280;17365;48.878;8.334;2022-11-20T13:36:00;99580.13;;;9.63;68.44
30598;BME280;17365;48.878;8.334;2022-11-20T13:38:27;99569.75;;;9.58;67.92
30598;BME280;17365;48.878;8.334;2022-11-20T13:40:55;99570.53;;;9.86;69.51
30598;BME280;17365;48.878;8.334;2022-11-20T13:46:00;99561.88;;;9.90;68.84
30598;BME280;17365;48.878;8.334;2022-11-20T13:48:30;99551.56;;;9.80;68.65
30598;BME280;17365;48.878;8.334;2022-11-20T13:51:12;99553.31;;;9.75;68.50
30598;BME280;17365;48.878;8.334;2022-11-20T13:56:43;99545.56;;;9.67;66.90
30598;BME280;17365;48.878;8.334;2022-11-20T14:02:18;99541.22;;;9.75;68.76
30598;BME280;17365;48.878;8.334;2022-11-20T14:04:51;99543.81;;;9.72;68.84
30598;BME280;17365;48.878;8.334;2022-11-20T14:07:19;99540.34;;;9.76;69.19
30598;BME280;17365;48.878;8.334;2022-11-20T14:09:53;99539.47;;;9.73;69.00
30598;BME280;17365;48.878;8.334;2022-11-20T14:12:22;99536.06;;;9.66;69.44
30598;BME280;17365;48.878;8.334;2022-11-20T14:14:50;99539.59;;;9.44;67.81
30598;BME280;17365;48.878;8.334;2022-11-20T14:17:21;99528.41;;;9.32;67.50
30598;BME280;17365;48.878;8.334;2022-11-20T14:19:49;99521.50;;;9.25;66.34
30598;BME280;17365;48.878;8.334;2022-11-20T14:22:23;99518.97;;;9.18;67.09
30598;BME280;17365;48.878;8.334;2022-11-20T14:25:22;99520.66;;;9.23;65.96
30598;BME280;17365;48.878;8.334;2022-11-20T14:27:59;99516.34;;;9.31;66.64
30598;BME280;17365;48.878;8.334;2022-11-20T14:30:27;99507.75;;;9.11;67.14
30598;BME280;17365;48.878;8.334;2022-11-20T14:32:56;99518.13;;;9.08;67.20
30598;BME280;17365;48.878;8.334;2022-11-20T14:35:30;99503.47;;;8.90;66.76
30598;BME280;17365;48.878;8.334;2022-11-20T14:37:56;99507.78;;;8.99;68.17
30598;BME280;17365;48.878;8.334;2022-11-20T14:40:33;99505.19;;;8.90;66.03